Time;durP1;ratioP1;P1;durP2;ratioP2;P2;SDS_P1;SDS_P2;PMS_P1;PMS_P2;Temp;Humidity;BMP_temperature;BMP_pressure;BME280_temperature;BME280_humidity;BME280_pressure;Samples;Min_cycle;Max_cycle;Signal;HPM_P1;HPM_P2
2021/03/05 00:00:59;;;;;;;;;;;;;;;2.09;100.00;100416.97;5078907;28;20369;-79
2021/03/05 00:03:26;;;;;;;;;;;;;;;2.08;100.00;100409.84;5099230;28;19931;-78
2021/03/05 00:05:53;;;;;;;;;;;;;;;2.20;100.00;100410.72;5118063;28;19924;-79
2021/03/05 00:08:20;;;;;;;;;;;;;;;2.23;100.00;100417.53;5083407;28;19927;-79
2021/03/05 00:10:47;;;;;;;;;;;;;;;2.26;100.00;100416.84;5117919;28;19928;-79
2021/03/05 00:13:14;;;;;;;;;;;;;;;2.18;100.00;100409.44;5118054;28;19930;-79
2021/03/05 00:15:42;;;;;;;;;;;;;;;2.13;100.00;100417.91;5099814;28;19927;-79
2021/03/05 00:18:10;;;;;;;;;;;;;;;2.07;100.00;100419.25;5117820;28;20381;-80
2021/03/05 00:20:39;;;;;;;;;;;;;;;2.08;100.00;100416.16;5099666;28;19924;-79
2021/03/05 00:23:05;;;;;;;;;;;;;;;2.11;100.00;100426.53;5099969;28;19930;-79
2021/03/05 00:25:32;;;;;;;;;;;;;;;2.05;100.00;100422.34;5117961;28;19927;-80
2021/03/05 00:27:58;;;;;;;;;;;;;;;2.11;100.00;100433.97;5117776;28;19924;-79
2021/03/05 00:30:24;;;;;;;;;;;;;;;2.09;100.00;100422.50;5099526;28;20001;-79
2021/03/05 00:32:51;;;;;;;;;;;;;;;2.06;100.00;100434.97;5117454;28;19932;-80
2021/03/05 00:35:18;;;;;;;;;;;;;;;2.19;100.00;100430.34;5117709;28;19924;-79
2021/03/05 00:37:47;;;;;;;;;;;;;;;2.25;100.00;100431.78;5117948;28;20282;-79
2021/03/05 00:40:15;;;;;;;;;;;;;;;2.34;100.00;100435.28;5079354;28;19931;-79
2021/03/05 00:42:42;;;;;;;;;;;;;;;2.17;100.00;100436.22;5084385;28;20379;-79
2021/03/05 00:45:10;;;;;;;;;;;;;;;2.09;100.00;100444.56;5067296;28;20289;-79
2021/03/05 00:47:38;;;;;;;;;;;;;;;2.13;100.00;100446.31;5117491;28;19923;-79
2021/03/05 00:50:06;;;;;;;;;;;;;;;2.22;100.00;100432.44;5099276;28;19923;-79
2021/03/05 00:52:33;;;;;;;;;;;;;;;2.22;100.00;100449.00;5099070;28;20432;-79
2021/03/05 00:54:59;;;;;;;;;;;;;;;2.15;100.00;100443.22;5082581;28;20420;-80
2021/03/05 00:57:27;;;;;;;;;;;;;;;2.12;100.00;100444.66;5079152;28;19928;-79
2021/03/05 00:59:54;;;;;;;;;;;;;;;2.11;100.00;100445.81;5090227;28;20355;-80
2021/03/05 01:02:21;;;;;;;;;;;;;;;2.10;100.00;100440.66;5078930;28;19954;-80
2021/03/05 01:04:47;;;;;;;;;;;;;;;2.05;100.00;100444.41;5088771;28;19927;-80
2021/03/05 01:07:14;;;;;;;;;;;;;;;2.06;100.00;100434.97;5117042;28;20389;-80
2021/03/05 01:09:41;;;;;;;;;;;;;;;2.04;100.00;100430.94;5099214;28;19924;-80
2021/03/05 01:12:08;;;;;;;;;;;;;;;2.01;100.00;100431.63;5098433;28;19928;-80
2021/03/05 01:14:34;;;;;;;;;;;;;;;2.01;100.00;100434.38;5098649;28;19923;-80
2021/03/05 01:17:01;;;;;;;;;;;;;;;2.16;100.00;100433.78;5116925;28;19924;-80
2021/03/05 01:19:28;;;;;;;;;;;;;;;2.06;100.00;100432.22;5064200;28;20487;-80
2021/03/05 01:21:54;;;;;;;;;;;;;;;2.04;100.00;100436.47;5107617;28;19981;-80
2021/03/05 01:24:21;;;;;;;;;;;;;;;2.19;100.00;100433.94;5095966;28;21524;-80
2021/03/05 01:26:47;;;;;;;;;;;;;;;2.16;100.00;100436.53;5105453;28;19967;-80
2021/03/05 01:29:14;;;;;;;;;;;;;;;2.08;100.00;100431.88;5081635;28;19931;-80
2021/03/05 01:31:40;;;;;;;;;;;;;;;2.10;100.00;100426.84;5098630;28;19933;-80
2021/03/05 01:34:08;;;;;;;;;;;;;;;2.05;100.00;100435.31;5098504;28;19935;-80
2021/03/05 01:36:35;;;;;;;;;;;;;;;2.07;100.00;100435.78;5098312;28;20279;-79
2021/03/05 01:39:03;;;;;;;;;;;;;;;2.09;100.00;100439.03;5098387;28;19924;-79
2021/03/05 01:41:32;;;;;;;;;;;;;;;2.04;100.00;100436.47;5098489;28;20014;-80
2021/03/05 01:43:58;;;;;;;;;;;;;;;2.01;100.00;100437.94;5098090;28;20277;-79
2021/03/05 01:46:25;;;;;;;;;;;;;;;2.04;100.00;100436.47;5098118;28;20019;-79
2021/03/05 01:48:54;;;;;;;;;;;;;;;1.99;100.00;100440.22;5116459;28;19923;-80
2021/03/05 01:51:24;;;;;;;;;;;;;;;2.11;100.00;100445.81;5116341;28;19931;-79
2021/03/05 01:53:51;;;;;;;;;;;;;;;2.07;100.00;100436.63;5116316;28;19965;-79
2021/03/05 01:56:39;;;;;;;;;;;;;;;2.05;100.00;100440.81;5098149;28;19928;-79
2021/03/05 01:59:07;;;;;;;;;;;;;;;2.02;100.00;100445.06;5115870;28;19924;-79
2021/03/05 02:01:34;;;;;;;;;;;;;;;2.08;100.00;100451.19;5098138;28;19927;-79
2021/03/05 02:04:01;;;;;;;;;;;;;;;2.07;100.00;100450.41;5116027;28;19924;-79
2021/03/05 02:06:29;;;;;;;;;;;;;;;1.99;100.00;100455.94;5098095;28;20010;-80
2021/03/05 02:08:56;;;;;;;;;;;;;;;1.99;100.00;100442.97;5115865;28;20014;-80
2021/03/05 02:11:23;;;;;;;;;;;;;;;2.03;100.00;100443.13;5115801;28;19984;-79
2021/03/05 02:13:51;;;;;;;;;;;;;;;2.12;100.00;100449.41;5097530;28;19923;-79
2021/03/05 02:16:20;;;;;;;;;;;;;;;2.15;100.00;100448.72;5115633;28;20030;-79
2021/03/05 02:18:57;;;;;;;;;;;;;;;2.02;100.00;100444.25;5115781;28;19924;-80
2021/03/05 02:21:36;;;;;;;;;;;;;;;2.04;100.00;100447.50;5115748;28;19949;-79
2021/03/05 02:24:08;;;;;;;;;;;;;;;2.08;100.00;100448.44;5077131;28;19924;-80
2021/03/05 02:26:53;;;;;;;;;;;;;;;2.06;100.00;100446.00;5115235;28;19931;-80
2021/03/05 02:29:39;;;;;;;;;;;;;;;2.09;100.00;100442.59;5093447;28;20264;-79
2021/03/05 02:32:09;;;;;;;;;;;;;;;2.07;100.00;100446.81;5115653;28;19924;-79
2021/03/05 02:34:37;;;;;;;;;;;;;;;2.04;100.00;100444.75;5096433;28;20019;-79
2021/03/05 02:37:13;;;;;;;;;;;;;;;2.06;100.00;100445.22;5098579;28;19930;-79
2021/03/05 02:39:44;;;;;;;;;;;;;;;2.09;100.00;100439.03;5097149;28;19928;-80
2021/03/05 02:42:18;;;;;;;;;;;;;;;2.09;100.00;100441.78;5114852;28;20014;-80
2021/03/05 02:44:48;;;;;;;;;;;;;;;2.05;100.00;100438.06;5097000;28;20290;-80
2021/03/05 02:47:16;;;;;;;;;;;;;;;2.05;100.00;100443.59;5080142;28;19930;-79
2021/03/05 02:49:45;;;;;;;;;;;;;;;2.04;100.00;100437.28;5097158;28;19924;-79
2021/03/05 02:52:13;;;;;;;;;;;;;;;2.05;100.00;100432.56;5114921;28;20378;-79
2021/03/05 02:54:40;;;;;;;;;;;;;;;2.00;100.00;100444.59;5096729;28;19932;-79
2021/03/05 02:57:08;;;;;;;;;;;;;;;1.97;100.00;100447.22;5096721;28;19924;-79
2021/03/05 02:59:39;;;;;;;;;;;;;;;2.06;100.00;100440.50;5115251;28;19931;-80
2021/03/05 03:02:06;;;;;;;;;;;;;;;2.02;100.00;100444.25;5114911;28;19932;-79
2021/03/05 03:04:34;;;;;;;;;;;;;;;1.95;100.00;100444.81;5080142;28;20358;-79
2021/03/05 03:07:02;;;;;;;;;;;;;;;1.94;100.00;100448.69;5114622;28;19934;-79
2021/03/05 03:09:30;;;;;;;;;;;;;;;1.94;100.00;100454.19;5096783;28;20385;-79
2021/03/05 03:11:56;;;;;;;;;;;;;;;1.89;100.00;100448.88;5114468;28;19924;-79
2021/03/05 03:14:25;;;;;;;;;;;;;;;1.94;100.00;100448.69;5096282;28;20210;-79
2021/03/05 03:16:52;;;;;;;;;;;;;;;1.95;100.00;100450.31;5115231;28;19924;-79
2021/03/05 03:19:19;;;;;;;;;;;;;;;1.95;100.00;100458.59;5096515;28;19924;-79
2021/03/05 03:21:46;;;;;;;;;;;;;;;1.91;100.00;100454.06;5114647;28;19923;-80
2021/03/05 03:24:13;;;;;;;;;;;;;;;1.89;100.00;100457.94;5114512;28;19928;-79
2021/03/05 03:26:39;;;;;;;;;;;;;;;1.94;100.00;100464.44;5096195;28;19927;-80
2021/03/05 03:29:08;;;;;;;;;;;;;;;2.05;100.00;100460.94;5114525;28;19930;-79
2021/03/05 03:31:36;;;;;;;;;;;;;;;1.93;100.00;100460.84;5096461;28;19935;-79
2021/03/05 03:34:05;;;;;;;;;;;;;;;1.94;100.00;100461.69;5114448;28;19923;-79
2021/03/05 03:36:40;;;;;;;;;;;;;;;2.03;100.00;100462.44;5090377;28;20065;-79
2021/03/05 03:39:09;;;;;;;;;;;;;;;1.91;100.00;100465.09;5106847;28;19923;-79
2021/03/05 03:41:39;;;;;;;;;;;;;;;2.04;100.00;100464.03;5114403;28;20568;-79
2021/03/05 03:44:06;;;;;;;;;;;;;;;1.88;100.00;100469.31;5096134;28;19928;-79
2021/03/05 03:46:34;;;;;;;;;;;;;;;1.78;100.00;100467.75;5096033;28;20286;-79
2021/03/05 03:49:06;;;;;;;;;;;;;;;1.92;100.00;100473.81;5096253;28;19924;-79
2021/03/05 03:51:36;;;;;;;;;;;;;;;1.86;100.00;100475.16;5114463;28;19924;-79
2021/03/05 03:54:03;;;;;;;;;;;;;;;1.88;100.00;100472.88;5096047;28;19931;-79
2021/03/05 03:56:30;;;;;;;;;;;;;;;1.74;100.00;100472.28;5096018;28;19981;-79
2021/03/05 03:58:57;;;;;;;;;;;;;;;1.74;100.00;100468.75;5096088;28;19959;-79
2021/03/05 04:01:24;;;;;;;;;;;;;;;1.81;100.00;100475.34;5114373;28;19924;-79
2021/03/05 04:03:51;;;;;;;;;;;;;;;1.89;100.00;100480.00;5114119;28;20014;-79
2021/03/05 04:06:23;;;;;;;;;;;;;;;1.79;100.00;100480.38;5114018;28;19934;-79
2021/03/05 04:08:50;;;;;;;;;;;;;;;1.76;100.00;100470.03;5095885;28;19934;-79
2021/03/05 04:11:18;;;;;;;;;;;;;;;1.74;100.00;100477.81;5113950;28;19924;-79
2021/03/05 04:13:44;;;;;;;;;;;;;;;1.71;100.00;100485.94;5078921;28;19989;-79
2021/03/05 04:16:11;;;;;;;;;;;;;;;1.71;100.00;100483.97;5114135;28;20476;-80
2021/03/05 04:18:38;;;;;;;;;;;;;;;1.70;100.00;100487.88;5095523;28;19930;-79
2021/03/05 04:21:07;;;;;;;;;;;;;;;1.69;100.00;100485.47;5114041;28;19931;-79
2021/03/05 04:23:34;;;;;;;;;;;;;;;1.72;100.00;100495.81;5113781;28;19934;-79
2021/03/05 04:26:03;;;;;;;;;;;;;;;1.70;100.00;100493.41;5095793;28;19930;-79
2021/03/05 04:28:29;;;;;;;;;;;;;;;1.72;100.00;100496.63;5113745;28;20014;-80
2021/03/05 04:30:57;;;;;;;;;;;;;;;1.68;100.00;100501.19;5095887;28;19924;-80
2021/03/05 04:33:23;;;;;;;;;;;;;;;1.72;100.00;100501.34;5113849;28;19976;-79
2021/03/05 04:35:50;;;;;;;;;;;;;;;1.71;100.00;100495.00;5081404;28;19950;-80
2021/03/05 04:38:17;;;;;;;;;;;;;;;1.72;100.00;100491.13;5086357;28;19924;-80
2021/03/05 04:40:43;;;;;;;;;;;;;;;1.74;100.00;100501.81;5094360;28;19935;-80
2021/03/05 04:43:09;;;;;;;;;;;;;;;1.77;100.00;100515.72;5113550;28;19924;-80
2021/03/05 04:45:38;;;;;;;;;;;;;;;1.81;100.00;100524.97;5103984;28;19928;-79
2021/03/05 04:48:05;;;;;;;;;;;;;;;1.80;100.00;100526.09;5110633;28;19969;-80
2021/03/05 04:50:32;;;;;;;;;;;;;;;1.77;100.00;100523.22;5117673;28;19931;-79
2021/03/05 04:52:58;;;;;;;;;;;;;;;1.77;100.00;100532.25;5082261;28;19928;-79
2021/03/05 04:55:25;;;;;;;;;;;;;;;1.74;100.00;100534.88;5117577;28;19924;-79
2021/03/05 04:57:52;;;;;;;;;;;;;;;1.73;100.00;100525.81;5117402;28;19923;-79
2021/03/05 05:00:18;;;;;;;;;;;;;;;1.80;100.00;100528.06;5099081;28;19927;-79
2021/03/05 05:02:45;;;;;;;;;;;;;;;1.81;100.00;100533.25;5117625;28;19963;-79
2021/03/05 05:05:11;;;;;;;;;;;;;;;1.92;100.00;100535.63;5082090;28;19924;-79
2021/03/05 05:07:38;;;;;;;;;;;;;;;1.78;100.00;100538.59;5078643;28;19928;-79
2021/03/05 05:10:06;;;;;;;;;;;;;;;1.73;100.00;100536.81;5111859;28;19931;-80
2021/03/05 05:12:33;;;;;;;;;;;;;;;1.85;100.00;100538.88;5098906;28;19947;-80
2021/03/05 05:14:59;;;;;;;;;;;;;;;1.79;100.00;100545.72;5092080;28;19923;-80
2021/03/05 05:17:27;;;;;;;;;;;;;;;1.77;100.00;100543.28;5116918;28;19997;-80
2021/03/05 05:19:55;;;;;;;;;;;;;;;1.77;100.00;100543.28;5098620;28;19924;-80
2021/03/05 05:22:21;;;;;;;;;;;;;;;1.78;100.00;100544.91;5116601;28;19928;-80
2021/03/05 05:24:48;;;;;;;;;;;;;;;1.76;100.00;100547.19;5082107;28;19927;-80
2021/03/05 05:27:14;;;;;;;;;;;;;;;1.78;100.00;100549.63;5116598;28;19928;-79
2021/03/05 05:29:41;;;;;;;;;;;;;;;1.85;100.00;100555.41;5098579;28;20036;-79
2021/03/05 05:32:07;;;;;;;;;;;;;;;1.92;100.00;100555.72;5116645;28;20014;-80
2021/03/05 05:34:34;;;;;;;;;;;;;;;1.92;100.00;100552.16;5098647;28;19923;-79
2021/03/05 05:37:00;;;;;;;;;;;;;;;1.89;100.00;100556.41;5116394;28;19980;-79
2021/03/05 05:39:37;;;;;;;;;;;;;;;1.79;100.00;100563.06;5092338;28;19970;-79
2021/03/05 05:42:05;;;;;;;;;;;;;;;1.74;100.00;100563.22;5090441;28;19924;-79
2021/03/05 05:44:32;;;;;;;;;;;;;;;1.69;100.00;100571.69;5098300;28;20274;-79
2021/03/05 05:47:00;;;;;;;;;;;;;;;1.67;100.00;100568.47;5098343;28;19962;-79
2021/03/05 05:49:28;;;;;;;;;;;;;;;1.67;100.00;100582.22;5116322;28;19955;-79
2021/03/05 05:51:57;;;;;;;;;;;;;;;1.69;100.00;100584.66;5081044;28;19924;-80
2021/03/05 05:54:24;;;;;;;;;;;;;;;1.77;100.00;100581.09;5098633;28;19955;-80
2021/03/05 05:56:52;;;;;;;;;;;;;;;1.71;100.00;100583.19;5100104;28;19923;-79
2021/03/05 05:59:20;;;;;;;;;;;;;;;1.82;100.00;100587.22;5114881;28;19927;-79
2021/03/05 06:01:46;;;;;;;;;;;;;;;1.84;100.00;100592.41;5116037;28;20402;-79
2021/03/05 06:04:14;;;;;;;;;;;;;;;1.81;100.00;100593.06;5097439;28;19924;-79
2021/03/05 06:06:42;;;;;;;;;;;;;;;1.73;100.00;100597.47;5115841;28;19973;-79
2021/03/05 06:09:10;;;;;;;;;;;;;;;1.59;100.00;100599.59;5098133;28;20005;-79
2021/03/05 06:11:37;;;;;;;;;;;;;;;1.54;100.00;100604.47;5097386;28;20290;-79
2021/03/05 06:14:07;;;;;;;;;;;;;;;1.54;100.00;100604.47;5094160;28;19930;-79
2021/03/05 06:16:34;;;;;;;;;;;;;;;1.51;100.00;100610.63;5110756;28;19932;-78
2021/03/05 06:19:16;;;;;;;;;;;;;;;1.50;100.00;100612.56;5073977;28;19924;-80
2021/03/05 06:21:42;;;;;;;;;;;;;;;1.50;100.00;100609.81;5093611;28;19931;-78
2021/03/05 06:24:09;;;;;;;;;;;;;;;1.46;100.00;100608.84;5110081;28;20244;-78
2021/03/05 06:26:48;;;;;;;;;;;;;;;1.44;100.00;100610.31;5111150;28;20014;-79
2021/03/05 06:29:15;;;;;;;;;;;;;;;1.47;100.00;100615.19;5098185;28;19932;-79
2021/03/05 06:31:50;;;;;;;;;;;;;;;1.55;100.00;100623.44;5100184;28;20027;-79
2021/03/05 06:34:17;;;;;;;;;;;;;;;1.54;100.00;100627.34;5081955;28;20299;-79
2021/03/05 06:36:55;;;;;;;;;;;;;;;1.49;100.00;100618.41;5105660;28;19924;-79
2021/03/05 06:39:25;;;;;;;;;;;;;;;1.52;100.00;100631.53;5087436;28;19924;-79
2021/03/05 06:42:08;;;;;;;;;;;;;;;1.48;100.00;100634.16;5085592;28;19923;-79
2021/03/05 06:44:36;;;;;;;;;;;;;;;1.53;100.00;100636.72;5092778;28;19967;-79
2021/03/05 06:47:11;;;;;;;;;;;;;;;1.46;100.00;100636.41;5112027;28;19924;-79
2021/03/05 06:49:39;;;;;;;;;;;;;;;1.46;100.00;100643.84;5074130;28;20020;-78
2021/03/05 06:52:06;;;;;;;;;;;;;;;1.52;100.00;100645.31;5094152;28;19931;-81
2021/03/05 06:54:34;;;;;;;;;;;;;;;1.47;100.00;100638.00;5073674;28;19924;-81
2021/03/05 06:57:02;;;;;;;;;;;;;;;1.46;100.00;100646.59;5071945;28;19973;-81
2021/03/05 06:59:42;;;;;;;;;;;;;;;1.43;100.00;100648.06;5104087;28;20030;-86
2021/03/05 07:02:09;;;;;;;;;;;;;;;1.40;100.00;100650.66;5092737;28;19924;-85
2021/03/05 07:04:42;;;;;;;;;;;;;;;1.41;100.00;100644.81;5092707;28;19935;-86
2021/03/05 07:07:10;;;;;;;;;;;;;;;1.42;100.00;100646.44;5094850;28;19924;-86
2021/03/05 07:09:38;;;;;;;;;;;;;;;1.41;100.00;100644.81;5074305;28;19976;-85
2021/03/05 07:12:09;;;;;;;;;;;;;;;1.43;100.00;100642.56;5087880;28;20394;-87
2021/03/05 07:14:37;;;;;;;;;;;;;;;1.46;100.00;100647.44;5091033;28;20643;-82
2021/03/05 07:17:04;;;;;;;;;;;;;;;1.47;100.00;100670.28;5073076;28;20023;-81
2021/03/05 07:19:31;;;;;;;;;;;;;;;1.49;100.00;100673.50;5088609;28;19924;-80
2021/03/05 07:21:59;;;;;;;;;;;;;;;1.49;100.00;100677.06;5111373;28;20768;-81
2021/03/05 07:24:26;;;;;;;;;;;;;;;1.50;100.00;100684.19;5111243;28;19963;-81
2021/03/05 07:27:01;;;;;;;;;;;;;;;1.64;100.00;100695.88;5110420;28;19923;-81
2021/03/05 07:29:43;;;;;;;;;;;;;;;1.60;100.00;100694.91;5076424;28;19923;-80
2021/03/05 07:32:47;;;;;;;;;;;;;;;1.66;100.00;100699.13;5113957;28;20547;-80
2021/03/05 07:35:17;;;;;;;;;;;;;;;1.67;100.00;100708.16;5038568;28;19930;-80
2021/03/05 07:37:54;;;;;;;;;;;;;;;1.66;100.00;100706.56;5086878;28;19924;-81
2021/03/05 07:40:21;;;;;;;;;;;;;;;1.71;100.00;100709.94;5111050;28;19923;-82
2021/03/05 07:42:49;;;;;;;;;;;;;;;1.73;100.00;100707.69;5096607;28;19935;-82
2021/03/05 07:45:17;;;;;;;;;;;;;;;1.75;100.00;100713.69;5095976;28;19931;-82
2021/03/05 07:47:45;;;;;;;;;;;;;;;1.76;100.00;100723.56;5100423;28;20392;-82
2021/03/05 07:50:15;;;;;;;;;;;;;;;1.76;100.00;100723.56;5079998;28;20571;-81
2021/03/05 07:52:42;;;;;;;;;;;;;;;1.79;100.00;100714.66;5093938;28;19924;-82
2021/03/05 07:55:09;;;;;;;;;;;;;;;1.76;100.00;100718.06;5114724;28;20381;-82
2021/03/05 07:57:43;;;;;;;;;;;;;;;1.83;100.00;100712.84;5074724;28;19924;-82
2021/03/05 08:00:10;;;;;;;;;;;;;;;1.88;100.00;100722.13;5105462;28;20282;-82
2021/03/05 08:02:54;;;;;;;;;;;;;;;1.95;100.00;100725.19;5096513;28;20190;-82
2021/03/05 08:05:34;;;;;;;;;;;;;;;2.00;100.00;100720.28;5089630;28;19950;-82
2021/03/05 08:08:12;;;;;;;;;;;;;;;2.09;100.00;100732.13;5114204;28;19927;-82
2021/03/05 08:10:40;;;;;;;;;;;;;;;2.15;100.00;100730.81;5106550;28;20383;-82
2021/03/05 08:13:27;;;;;;;;;;;;;;;2.17;100.00;100738.75;5088298;28;19993;-82
2021/03/05 08:16:14;;;;;;;;;;;;;;;2.39;100.00;100733.03;5067478;28;19924;-82
2021/03/05 08:18:41;;;;;;;;;;;;;;;2.66;100.00;100733.44;5083983;28;19924;-80
2021/03/05 08:21:07;;;;;;;;;;;;;;;3.06;100.00;100744.94;5075065;28;20062;-81
2021/03/05 08:23:34;;;;;;;;;;;;;;;3.24;100.00;100746.44;5095913;28;19946;-81
2021/03/05 08:26:00;;;;;;;;;;;;;;;3.37;100.00;100745.38;5079970;28;19931;-80
2021/03/05 08:28:42;;;;;;;;;;;;;;;3.46;100.00;100748.88;5097835;28;19951;-81
2021/03/05 08:31:27;;;;;;;;;;;;;;;3.57;100.00;100744.59;5062987;28;20370;-81
2021/03/05 08:34:13;;;;;;;;;;;;;;;3.96;100.00;100748.78;5070218;28;19967;-81
2021/03/05 08:36:49;;;;;;;;;;;;;;;3.50;100.00;100744.28;5092703;28;19924;-81
2021/03/05 08:39:24;;;;;;;;;;;;;;;3.44;100.00;100751.16;5063906;28;19924;-81
2021/03/05 08:42:11;;;;;;;;;;;;;;;3.00;100.00;100735.22;5078121;28;20311;-81
2021/03/05 08:44:38;;;;;;;;;;;;;;;2.80;100.00;100730.44;5061907;28;19924;-81
2021/03/05 08:47:05;;;;;;;;;;;;;;;2.70;100.00;100731.59;5066674;28;19950;-81
2021/03/05 08:49:32;;;;;;;;;;;;;;;3.02;100.00;100743.97;5097297;28;19928;-81
2021/03/05 08:51:59;;;;;;;;;;;;;;;3.01;100.00;100742.34;5060373;28;19928;-81
2021/03/05 08:54:26;;;;;;;;;;;;;;;3.15;100.00;100748.44;5057997;28;19924;-81
2021/03/05 08:56:53;;;;;;;;;;;;;;;3.21;100.00;100747.13;5078779;28;19931;-81
2021/03/05 08:59:19;;;;;;;;;;;;;;;3.38;100.00;100746.97;5053038;28;19930;-82
2021/03/05 09:01:46;;;;;;;;;;;;;;;3.13;100.00;100745.19;5074041;28;19955;-81
2021/03/05 09:04:18;;;;;;;;;;;;;;;2.93;100.00;100746.78;5086485;28;20019;-82
2021/03/05 09:06:58;;;;;;;;;;;;;;;2.96;100.00;100745.28;5073763;28;19924;-82
2021/03/05 09:09:30;;;;;;;;;;;;;;;3.04;100.00;100752.72;5056018;28;19924;-84
2021/03/05 09:12:13;;;;;;;;;;;;;;;3.20;100.00;100753.75;5082862;28;19931;-83
2021/03/05 09:14:43;;;;;;;;;;;;;;;3.28;100.00;100753.72;5075367;28;19932;-81
2021/03/05 09:17:11;;;;;;;;;;;;;;;3.11;100.00;100756.59;5092483;28;19924;-80
2021/03/05 09:19:39;;;;;;;;;;;;;;;3.19;100.00;100755.72;5068156;28;19924;-80
2021/03/05 09:22:06;;;;;;;;;;;;;;;3.22;100.00;100759.78;5077147;28;19947;-80
2021/03/05 09:25:06;;;;;;;;;;;;;;;3.19;100.00;100761.25;5075197;28;20711;-80
2021/03/05 09:27:34;;;;;;;;;;;;;;;3.13;100.00;100753.50;5038180;28;20371;-80
2021/03/05 09:30:14;;;;;;;;;;;;;;;3.36;100.00;100761.13;5067588;28;19931;-83
2021/03/05 09:32:59;;;;;;;;;;;;;;;3.35;100.00;100753.19;5077795;28;19928;-77
2021/03/05 09:35:27;;;;;;;;;;;;;;;3.29;100.00;100758.09;5071699;28;19931;-88
2021/03/05 09:37:57;;;;;;;;;;;;;;;3.38;100.00;100758.03;5069770;28;20287;-78
2021/03/05 09:40:25;;;;;;;;;;;;;;;3.47;100.00;100764.31;5081876;28;19943;-78
2021/03/05 09:42:53;;;;;;;;;;;;;;;3.58;100.00;100766.38;5091624;28;19930;-79
2021/03/05 09:48:34;;;;;;;;;;;;;;;3.52;100.00;100767.69;5091121;28;19928;-78
2021/03/05 09:51:01;;;;;;;;;;;;;;;3.41;100.00;100765.66;5087744;28;19932;-81
2021/03/05 09:53:35;;;;;;;;;;;;;;;3.49;100.00;100765.63;5072759;28;20383;-82
2021/03/05 09:56:04;;;;;;;;;;;;;;;3.40;100.00;100766.81;5055266;28;20014;-82
2021/03/05 09:58:30;;;;;;;;;;;;;;;3.36;100.00;100760.34;5089372;28;19928;-81
2021/03/05 10:00:57;;;;;;;;;;;;;;;3.45;100.00;100750.03;5074850;28;19928;-83
2021/03/05 10:03:24;;;;;;;;;;;;;;;3.56;100.00;100759.53;5091913;28;20272;-82
2021/03/05 10:05:51;;;;;;;;;;;;;;;3.53;100.00;100754.69;5082813;28;19932;-82
2021/03/05 10:08:22;;;;;;;;;;;;;;;3.54;100.00;100750.78;5072730;28;19924;-83
2021/03/05 10:10:55;;;;;;;;;;;;;;;3.43;100.00;100755.09;5054150;28;19967;-80
2021/03/05 10:13:22;;;;;;;;;;;;;;;3.43;100.00;100755.09;5090916;28;19932;-77
2021/03/05 10:15:49;;;;;;;;;;;;;;;3.35;100.00;100758.69;5080651;28;19929;-77
2021/03/05 10:18:16;;;;;;;;;;;;;;;3.24;100.00;100763.03;5082779;28;19924;-77
2021/03/05 10:20:51;;;;;;;;;;;;;;;3.27;100.00;100759.59;5089924;28;19924;-77
2021/03/05 10:23:18;;;;;;;;;;;;;;;3.28;100.00;100766.72;5092327;28;19932;-77
2021/03/05 10:25:50;;;;;;;;;;;;;;;3.21;100.00;100769.22;5089159;28;19924;-77
2021/03/05 10:28:24;;;;;;;;;;;;;;;3.25;100.00;100775.69;5089059;28;19924;-78
2021/03/05 10:30:51;;;;;;;;;;;;;;;3.40;100.00;100777.84;5089015;28;20392;-78
2021/03/05 10:33:35;;;;;;;;;;;;;;;3.39;100.00;100777.03;5091247;28;20349;-78
2021/03/05 10:36:03;;;;;;;;;;;;;;;3.51;100.00;100779.88;5086099;28;19931;-77
2021/03/05 10:38:30;;;;;;;;;;;;;;;3.61;100.00;100775.94;5071085;28;19982;-78
2021/03/05 10:40:57;;;;;;;;;;;;;;;3.68;100.00;100782.53;5087419;28;19982;-78
2021/03/05 10:43:27;;;;;;;;;;;;;;;3.87;100.00;100775.72;5084604;28;19932;-79
2021/03/05 10:45:53;;;;;;;;;;;;;;;4.01;100.00;100782.63;5077282;28;19932;-77
2021/03/05 10:48:21;;;;;;;;;;;;;;;3.77;100.00;100768.66;5076457;28;19928;-75
2021/03/05 10:50:48;;;;;;;;;;;;;;;3.59;100.00;100780.97;5080786;28;20069;-79
2021/03/05 10:53:15;;;;;;;;;;;;;;;3.62;100.00;100772.81;5083702;28;20056;-77
2021/03/05 10:55:42;;;;;;;;;;;;;;;3.74;100.00;100778.44;5086565;28;19924;-80
2021/03/05 10:58:08;;;;;;;;;;;;;;;3.60;100.00;100779.84;5083033;28;20011;-78
2021/03/05 11:00:35;;;;;;;;;;;;;;;3.72;100.00;100779.91;5070295;28;19924;-79
2021/03/05 11:03:02;;;;;;;;;;;;;;;3.88;100.00;100774.59;5087283;28;20015;-77
2021/03/05 11:05:29;;;;;;;;;;;;;;;4.10;100.00;100785.28;5085790;28;20015;-77
2021/03/05 11:07:55;;;;;;;;;;;;;;;4.02;100.00;100773.16;5087538;28;19924;-81
2021/03/05 11:10:22;;;;;;;;;;;;;;;3.94;100.00;100760.19;5069224;28;20402;-81
2021/03/05 11:12:49;;;;;;;;;;;;;;;3.93;100.00;100764.13;5083417;28;19935;-82
2021/03/05 11:15:16;;;;;;;;;;;;;;;3.85;100.00;100778.03;5061672;28;19931;-83
2021/03/05 11:17:43;;;;;;;;;;;;;;;3.70;100.00;100766.44;5093604;28;19924;-83
2021/03/05 11:20:10;;;;;;;;;;;;;;;3.69;100.00;100764.00;5091046;28;20367;-84
2021/03/05 11:22:37;;;;;;;;;;;;;;;3.84;100.00;100768.91;5071353;28;19974;-84
2021/03/05 11:25:04;;;;;;;;;;;;;;;3.88;100.00;100764.31;5085409;28;19924;-83
2021/03/05 11:27:35;;;;;;;;;;;;;;;4.07;100.00;100770.19;5089708;28;19924;-85
2021/03/05 11:30:03;;;;;;;;;;;;;;;3.96;100.00;100770.94;5089411;28;19924;-87
2021/03/05 11:32:32;;;;;;;;;;;;;;;3.90;100.00;100758.44;5029201;28;19973;-85
2021/03/05 11:34:58;;;;;;;;;;;;;;;3.84;100.00;100763.38;5092240;28;19924;-84
2021/03/05 11:37:27;;;;;;;;;;;;;;;3.88;100.00;100760.75;5056189;28;19924;-83
2021/03/05 11:39:54;;;;;;;;;;;;;;;3.81;100.00;100761.31;5055508;28;20065;-85
2021/03/05 11:42:21;;;;;;;;;;;;;;;3.89;100.00;100768.72;5092324;28;20298;-86
2021/03/05 11:44:48;;;;;;;;;;;;;;;3.80;100.00;100770.75;5044926;28;19924;-89
2021/03/05 11:47:15;;;;;;;;;;;;;;;3.73;100.00;100776.00;5049475;28;21175;-79
2021/03/05 11:49:43;;;;;;;;;;;;;;;3.69;100.00;100775.06;5093106;28;20382;-81
2021/03/05 11:52:09;;;;;;;;;;;;;;;3.74;100.00;100777.63;5089318;28;19978;-84
2021/03/05 11:54:36;;;;;;;;;;;;;;;3.89;100.00;100781.72;5056096;28;19925;-82
2021/03/05 11:57:03;;;;;;;;;;;;;;;4.04;100.00;100776.41;5080792;28;19931;-80
2021/03/05 11:59:30;;;;;;;;;;;;;;;4.09;100.00;100778.94;5090047;28;19928;-80
2021/03/05 12:01:57;;;;;;;;;;;;;;;4.23;100.00;100785.00;5087537;28;19928;-85
2021/03/05 12:04:24;;;;;;;;;;;;;;;4.05;100.00;100777.19;5071833;28;19932;-81
2021/03/05 12:06:51;;;;;;;;;;;;;;;3.82;100.00;100773.19;5073739;28;19935;-87
2021/03/05 12:09:18;;;;;;;;;;;;;;;3.84;100.00;100763.38;5092460;28;19943;-79
2021/03/05 12:11:44;;;;;;;;;;;;;;;3.93;100.00;100763.31;5100273;28;19927;-81
2021/03/05 12:14:11;;;;;;;;;;;;;;;4.05;100.00;100766.94;5079855;28;19924;-87
2021/03/05 12:16:38;;;;;;;;;;;;;;;4.14;100.00;100764.09;5095821;28;19925;-87
2021/03/05 12:19:05;;;;;;;;;;;;;;;4.21;100.00;100756.84;5059405;28;19928;-86
2021/03/05 12:21:36;;;;;;;;;;;;;;;4.34;100.00;100752.16;5067864;28;19924;-84
2021/03/05 12:24:03;;;;;;;;;;;;;;;4.25;100.00;100754.22;5074566;28;20403;-84
2021/03/05 12:26:30;;;;;;;;;;;;;;;4.57;100.00;100753.38;5090598;28;19934;-86
2021/03/05 12:28:57;;;;;;;;;;;;;;;4.41;100.00;100741.38;5061563;28;19930;-85
2021/03/05 12:31:23;;;;;;;;;;;;;;;4.68;100.00;100755.34;5113649;28;19928;-85
2021/03/05 12:33:50;;;;;;;;;;;;;;;4.56;100.00;100738.72;5095334;28;20003;-86
2021/03/05 12:36:17;;;;;;;;;;;;;;;4.55;100.00;100742.66;5071179;28;19930;-85
2021/03/05 12:38:44;;;;;;;;;;;;;;;4.66;100.00;100741.06;5062349;28;19931;-86
2021/03/05 12:41:11;;;;;;;;;;;;;;;4.81;100.00;100734.84;5090739;28;19924;-86
2021/03/05 12:43:38;;;;;;;;;;;;;;;4.86;100.00;100731.03;5037952;28;19928;-85
2021/03/05 12:46:05;;;;;;;;;;;;;;;4.90;100.00;100718.94;5094053;28;19930;-87
2021/03/05 12:48:39;;;;;;;;;;;;;;;4.67;100.00;100728.81;5064663;28;19924;-85